SLET/SRZ METAR and TAF weather

Enter ICAO airport designator
Station Type Date Time Source
SLET METAR 2019/08/22 20:00 UTC NOAA

SLET 222000Z 31004KT 7000 NSC 33/17 Q1015


Station Type Date Time Source
SLET Decoded METAR 2019/08/22 20:00 UTC NOAA

Station name not available
Aug 22, 2019 - 04:00 PM EDT / 2019.08.22 2000 UTC
Wind: from the NW (310 degrees) at 5 MPH (4 KT):0
Visibility: 4 mile(s):0
Temperature: 91 F (33 C)
Dew Point: 62 F (17 C)
Relative Humidity: 38%
Pressure (altimeter): 29.97 in. Hg (1015 hPa)
ob: SLET 222000Z 31004KT 7000 NSC 33/17 Q1015
cycle: 20

Station Type Date Time Source
SLET TAF 2019/08/22 18:25 UTC NOAA

TAF SLET 221550Z 2218/2318 33007KT 6000 SCT070 TX34/2220Z TN20/2311Z
FM222300 18018KT 8000 BKN070
BECMG 2313/2315 SCT070

Example: see airport list